Bracebridge, Canada
Current Conditions -  °F | °C
As of 9:06 PM on Friday 31 Oct 2014 (Local Time) from CYQA Reporting Station
Light Snow Light Snow  
Wind Chill: -4°   Ceiling: 1100
Heat Index:   Visibility: 1.7mi
Dew Point:   Wind: 7mph
Humidity: 100%   Direction: 20°NNE
Pressure: 30.08"   Gusts: NA
Location:  45.05°N, 79.32°W
Report Text: CYQA 010106Z AUTO 02006KT 320V050 1 3/4SM -SN BKN011 OVC027 00/00 A3008 RMK SLP197
Loading
Personal Weather Stations






























Interactive Weather Map
Tropical Storm Tracking
New forecast layout! Learn more

10-Day Weather Forecast

Advertisements
Track Severe Weather on mobile